PUA253 SKBO-SEQM
Flight info
| Callsign | PUA253 |
|---|---|
| Flight time | N/A |
| Altitude | 23000 |
| Route | VAPOM4R OREGA Z009 PPN/N0446F240 W48 MER G675 IPI/N0439F230 G675 QIT |
| Aircraft | A320/M-SDE3FGHIRWY/LB1 |
Departure
| Time | 2026-05-01 15:10 |
|---|---|
| Airport | El Dorado International Airport (SKBO) |
Arrival
| Time | N/A |
|---|---|
| Airport | Mariscal Sucre International Airport (SEQM) |
| Time | Latitude | Longitude | Altitude | Speed | Heading |
|---|---|---|---|---|---|
| 2026-05-01 14:56 | 4.69722 | -74.14613 | 8362 ft | 0 kts | 221° |
| 2026-05-01 15:00 | 4.69710 | -74.14598 | 8362 ft | 6 kts | 88° |
| 2026-05-01 15:00 | 4.69711 | -74.14548 | 8362 ft | 8 kts | 107° |
| 2026-05-01 15:01 | 4.69671 | -74.14510 | 8362 ft | 9 kts | 163° |
| 2026-05-01 15:01 | 4.69608 | -74.14518 | 8361 ft | 6 kts | 190° |
| 2026-05-01 15:01 | 4.69602 | -74.14528 | 8361 ft | 2 kts | 245° |
| 2026-05-01 15:01 | 4.69607 | -74.14558 | 8361 ft | 10 kts | 291° |
| 2026-05-01 15:02 | 4.69651 | -74.14621 | 8362 ft | 10 kts | 307° |
| 2026-05-01 15:02 | 4.69677 | -74.14657 | 8362 ft | 9 kts | 307° |
| 2026-05-01 15:02 | 4.69719 | -74.14711 | 8361 ft | 6 kts | 307° |
| 2026-05-01 15:02 | 4.69748 | -74.14750 | 8361 ft | 10 kts | 303° |
| 2026-05-01 15:03 | 4.69759 | -74.14814 | 8361 ft | 8 kts | 274° |
| 2026-05-01 15:03 | 4.69769 | -74.14861 | 8362 ft | 7 kts | 293° |
| 2026-05-01 15:03 | 4.69805 | -74.14912 | 8362 ft | 9 kts | 308° |
| 2026-05-01 15:03 | 4.69837 | -74.14954 | 8362 ft | 7 kts | 308° |
| 2026-05-01 15:04 | 4.69871 | -74.14999 | 8362 ft | 14 kts | 307° |
| 2026-05-01 15:04 | 4.69948 | -74.15100 | 8361 ft | 19 kts | 307° |
| 2026-05-01 15:04 | 4.70029 | -74.15208 | 8361 ft | 20 kts | 307° |
| 2026-05-01 15:04 | 4.70113 | -74.15319 | 8361 ft | 20 kts | 307° |
| 2026-05-01 15:05 | 4.70201 | -74.15435 | 8361 ft | 21 kts | 307° |
| 2026-05-01 15:05 | 4.70292 | -74.15556 | 8361 ft | 22 kts | 307° |
| 2026-05-01 15:05 | 4.70387 | -74.15682 | 8361 ft | 23 kts | 307° |
| 2026-05-01 15:05 | 4.70488 | -74.15811 | 8361 ft | 24 kts | 307° |
| 2026-05-01 15:06 | 4.70591 | -74.15946 | 8361 ft | 25 kts | 308° |
| 2026-05-01 15:06 | 4.70695 | -74.16085 | 8361 ft | 25 kts | 306° |
| 2026-05-01 15:06 | 4.70803 | -74.16225 | 8361 ft | 26 kts | 308° |
| 2026-05-01 15:06 | 4.70912 | -74.16371 | 8361 ft | 27 kts | 306° |
| 2026-05-01 15:07 | 4.71024 | -74.16521 | 8360 ft | 25 kts | 308° |
| 2026-05-01 15:07 | 4.71130 | -74.16661 | 8360 ft | 21 kts | 307° |
| 2026-05-01 15:07 | 4.71196 | -74.16782 | 8360 ft | 18 kts | 257° |
| 2026-05-01 15:07 | 4.71151 | -74.16832 | 8360 ft | 0 kts | 218° |
| 2026-05-01 15:08 | 4.71122 | -74.16856 | 8359 ft | 17 kts | 218° |
| 2026-05-01 15:09 | 4.71013 | -74.16867 | 8360 ft | 17 kts | 129° |
| 2026-05-01 15:09 | 4.71006 | -74.16857 | 8360 ft | 0 kts | 129° |
| 2026-05-01 15:09 | 4.71004 | -74.16854 | 8360 ft | 2 kts | 129° |
| 2026-05-01 15:10 | 4.70916 | -74.16746 | 8360 ft | 53 kts | 129° |
| 2026-05-01 15:10 | 4.69854 | -74.15348 | 8484 ft | 180 kts | 128° |
| 2026-05-01 15:10 | 4.69083 | -74.14374 | 9509 ft | 178 kts | 127° |
| 2026-05-01 15:11 | 4.68208 | -74.13421 | 10169 ft | 199 kts | 150° |
| 2026-05-01 15:11 | 4.65474 | -74.13924 | 10655 ft | 243 kts | 227° |
| 2026-05-01 15:11 | 4.64471 | -74.15331 | 10987 ft | 255 kts | 238° |
| 2026-05-01 15:12 | 4.63608 | -74.16880 | 11011 ft | 255 kts | 239° |
| 2026-05-01 15:12 | 4.61886 | -74.19960 | 11010 ft | 252 kts | 239° |
| 2026-05-01 15:12 | 4.61320 | -74.21623 | 11017 ft | 261 kts | 260° |
| 2026-05-01 15:13 | 4.60135 | -74.27703 | 11707 ft | 330 kts | 245° |
| 2026-05-01 15:14 | 4.58022 | -74.32136 | 11997 ft | 375 kts | 240° |
| 2026-05-01 15:14 | 4.56759 | -74.34496 | 12188 ft | 392 kts | 239° |
| 2026-05-01 15:14 | 4.54141 | -74.39362 | 13174 ft | 401 kts | 240° |
| 2026-05-01 15:15 | 4.51533 | -74.44368 | 14200 ft | 410 kts | 241° |
| 2026-05-01 15:15 | 4.48920 | -74.49500 | 15224 ft | 417 kts | 241° |
| 2026-05-01 15:16 | 4.46261 | -74.54724 | 16174 ft | 425 kts | 241° |
| 2026-05-01 15:16 | 4.43545 | -74.60039 | 17165 ft | 432 kts | 241° |
| 2026-05-01 15:17 | 4.40786 | -74.65440 | 18069 ft | 439 kts | 240° |
| 2026-05-01 15:18 | 4.36559 | -74.73657 | 19267 ft | 448 kts | 240° |
| 2026-05-01 15:18 | 4.35125 | -74.76434 | 19671 ft | 450 kts | 240° |
| 2026-05-01 15:19 | 4.30808 | -74.84815 | 19920 ft | 451 kts | 240° |
| 2026-05-01 15:19 | 4.27938 | -74.90402 | 19921 ft | 451 kts | 240° |
| 2026-05-01 15:19 | 4.26499 | -74.93193 | 19926 ft | 451 kts | 240° |
| 2026-05-01 15:20 | 4.23612 | -74.98774 | 19924 ft | 451 kts | 240° |
| 2026-05-01 15:20 | 4.22174 | -75.01563 | 19980 ft | 451 kts | 240° |
| 2026-05-01 15:20 | 4.20690 | -75.04331 | 19931 ft | 450 kts | 236° |
| 2026-05-01 15:21 | 4.18874 | -75.06875 | 20189 ft | 450 kts | 230° |
| 2026-05-01 15:21 | 4.16978 | -75.09379 | 20581 ft | 452 kts | 231° |
| 2026-05-01 15:21 | 4.15087 | -75.11905 | 20966 ft | 455 kts | 231° |
| 2026-05-01 15:21 | 4.13193 | -75.14456 | 21339 ft | 457 kts | 231° |
| 2026-05-01 15:22 | 4.09380 | -75.19582 | 22025 ft | 461 kts | 231° |
| 2026-05-01 15:22 | 4.07456 | -75.22158 | 22389 ft | 463 kts | 231° |
| 2026-05-01 15:22 | 4.05525 | -75.24744 | 22705 ft | 465 kts | 231° |
| 2026-05-01 15:23 | 4.03584 | -75.27339 | 23011 ft | 467 kts | 231° |
| 2026-05-01 15:23 | 4.01635 | -75.29944 | 23306 ft | 468 kts | 231° |
| 2026-05-01 15:23 | 3.99675 | -75.32563 | 23588 ft | 470 kts | 231° |
| 2026-05-01 15:23 | 3.97711 | -75.35185 | 23806 ft | 472 kts | 231° |
| 2026-05-01 15:24 | 3.95735 | -75.37818 | 24123 ft | 473 kts | 231° |
| 2026-05-01 15:24 | 3.93759 | -75.40454 | 24366 ft | 474 kts | 231° |
| 2026-05-01 15:24 | 3.91780 | -75.43095 | 24607 ft | 475 kts | 232° |
| 2026-05-01 15:24 | 3.89799 | -75.45739 | 24881 ft | 475 kts | 232° |
| 2026-05-01 15:25 | 3.87790 | -75.48361 | 25112 ft | 475 kts | 229° |
| 2026-05-01 15:25 | 3.85482 | -75.50726 | 25389 ft | 474 kts | 220° |
| 2026-05-01 15:25 | 3.82907 | -75.52790 | 25580 ft | 475 kts | 217° |
| 2026-05-01 15:25 | 3.80307 | -75.54833 | 25800 ft | 476 kts | 217° |
| 2026-05-01 15:26 | 3.77730 | -75.56857 | 26006 ft | 477 kts | 217° |
| 2026-05-01 15:26 | 3.75125 | -75.58908 | 26211 ft | 478 kts | 217° |
| 2026-05-01 15:26 | 3.72504 | -75.60976 | 26411 ft | 479 kts | 217° |
| 2026-05-01 15:26 | 3.69887 | -75.63042 | 26593 ft | 480 kts | 217° |
| 2026-05-01 15:27 | 3.67265 | -75.65113 | 26808 ft | 481 kts | 217° |
| 2026-05-01 15:27 | 3.64640 | -75.67183 | 26984 ft | 480 kts | 218° |
| 2026-05-01 15:27 | 3.62014 | -75.69253 | 27127 ft | 481 kts | 218° |
| 2026-05-01 15:28 | 3.56746 | -75.73407 | 27409 ft | 482 kts | 218° |
| 2026-05-01 15:28 | 3.54106 | -75.75488 | 27538 ft | 482 kts | 218° |
| 2026-05-01 15:28 | 3.51475 | -75.77561 | 27732 ft | 481 kts | 217° |
| 2026-05-01 15:29 | 3.46232 | -75.81693 | 28191 ft | 477 kts | 218° |
| 2026-05-01 15:29 | 3.44505 | -75.83053 | 28352 ft | 476 kts | 217° |
| 2026-05-01 15:29 | 3.39308 | -75.87142 | 28759 ft | 473 kts | 218° |
| 2026-05-01 15:30 | 3.34133 | -75.91211 | 29119 ft | 473 kts | 218° |
| 2026-05-01 15:31 | 3.23830 | -75.99324 | 29974 ft | 470 kts | 218° |
| 2026-05-01 15:31 | 3.18701 | -76.03366 | 30391 ft | 468 kts | 218° |
| 2026-05-01 15:32 | 3.13582 | -76.07394 | 30747 ft | 467 kts | 218° |
| 2026-05-01 15:32 | 3.08478 | -76.11395 | 31175 ft | 465 kts | 218° |
| 2026-05-01 15:33 | 3.00897 | -76.17364 | 31914 ft | 459 kts | 219° |
| 2026-05-01 15:34 | 2.93398 | -76.23235 | 32642 ft | 453 kts | 219° |